sensor_id;sensor_type;location;lat;lon;timestamp;pressure;altitude;pressure_sealevel;temperature;humidity
44531;BME280;30240;47.418;0.700;2022-09-17T00:01:09;100774.3408203125;;;11.08;79.34
44531;BME280;30240;47.418;0.700;2022-09-17T00:03:34;100774.70092773438;;;11.03;79.8
44531;BME280;30240;47.418;0.700;2022-09-17T00:05:59;100774.10888671875;;;11.05;79.89
44531;BME280;30240;47.418;0.700;2022-09-17T00:08:23;100774.10888671875;;;11.05;79.89
44531;BME280;30240;47.418;0.700;2022-09-17T00:10:48;100773.71826171875;;;10.98;79.99
44531;BME280;30240;47.418;0.700;2022-09-17T00:13:14;100773.63891601562;;;10.96;79.95
44531;BME280;30240;47.418;0.700;2022-09-17T00:15:39;100769.89135742188;;;10.88;80.15
44531;BME280;30240;47.418;0.700;2022-09-17T00:18:03;100768.44482421875;;;10.76;80.86
44531;BME280;30240;47.418;0.700;2022-09-17T00:20:28;100768.44482421875;;;10.76;80.86
44531;BME280;30240;47.418;0.700;2022-09-17T00:22:53;100769.39086914062;;;10.75;81.14
44531;BME280;30240;47.418;0.700;2022-09-17T00:25:19;100776.58081054688;;;10.69;81.12
44531;BME280;30240;47.418;0.700;2022-09-17T00:27:44;100782.6904296875;;;10.68;81.31
44531;BME280;30240;47.418;0.700;2022-09-17T00:30:10;100786.767578125;;;10.6;81.47
44531;BME280;30240;47.418;0.700;2022-09-17T00:32:33;100786.767578125;;;10.6;81.47
44531;BME280;30240;47.418;0.700;2022-09-17T00:34:58;100787.29858398438;;;10.57;81.73
44531;BME280;30240;47.418;0.700;2022-09-17T00:37:24;100791.748046875;;;10.49;82.13
44531;BME280;30240;47.418;0.700;2022-09-17T00:39:49;100790.17944335938;;;10.44;82.4
44531;BME280;30240;47.418;0.700;2022-09-17T00:42:14;100786.77978515625;;;10.33;82.6
44531;BME280;30240;47.418;0.700;2022-09-17T00:44:44;100786.77978515625;;;10.33;82.6
44531;BME280;30240;47.418;0.700;2022-09-17T00:47:04;100784.46655273438;;;10.4;82.68
44531;BME280;30240;47.418;0.700;2022-09-17T00:49:29;100783.53881835938;;;10.33;82.99
44531;BME280;30240;47.418;0.700;2022-09-17T00:51:56;100779.43725585938;;;10.4;82.61
44531;BME280;30240;47.418;0.700;2022-09-17T00:54:19;100785.04028320312;;;10.34;82.91
44531;BME280;30240;47.418;0.700;2022-09-17T00:56:43;100785.04028320312;;;10.34;82.91
44531;BME280;30240;47.418;0.700;2022-09-17T00:59:10;100784.1552734375;;;10.19;83.46
44531;BME280;30240;47.418;0.700;2022-09-17T01:01:34;100785.05249023438;;;10.2;83.46
44531;BME280;30240;47.418;0.700;2022-09-17T01:03:58;100788.7939453125;;;10.15;83.58
44531;BME280;30240;47.418;0.700;2022-09-17T01:06:32;100797.49755859375;;;10.23;83.51
44531;BME280;30240;47.418;0.700;2022-09-17T01:08:56;100796.37451171875;;;10.29;83.31
44531;BME280;30240;47.418;0.700;2022-09-17T01:09:06;100796.37451171875;;;10.29;83.31
44531;BME280;30240;47.418;0.700;2022-09-17T01:11:30;100796.37451171875;;;10.29;83.31
44531;BME280;30240;47.418;0.700;2022-09-17T01:11:38;100796.37451171875;;;10.29;83.31
44531;BME280;30240;47.418;0.700;2022-09-17T01:13:46;100794.06127929688;;;10.39;83.18
44531;BME280;30240;47.418;0.700;2022-09-17T01:13:53;100794.06127929688;;;10.39;83.18
44531;BME280;30240;47.418;0.700;2022-09-17T01:13:59;100794.06127929688;;;10.39;83.18
44531;BME280;30240;47.418;0.700;2022-09-17T01:16:08;100801.69677734375;;;10.36;83.14
44531;BME280;30240;47.418;0.700;2022-09-17T01:18:42;100805.908203125;;;10.37;83.08
44531;BME280;30240;47.418;0.700;2022-09-17T01:21:34;100805.64575195312;;;10.25;83.61
44531;BME280;30240;47.418;0.700;2022-09-17T01:24:30;100805.64575195312;;;10.25;83.61
44531;BME280;30240;47.418;0.700;2022-09-17T01:24:44;100805.64575195312;;;10.25;83.61
44531;BME280;30240;47.418;0.700;2022-09-17T01:25:55;100808.80737304688;;;10.17;83.94
44531;BME280;30240;47.418;0.700;2022-09-17T01:26:02;100808.80737304688;;;10.17;83.94
44531;BME280;30240;47.418;0.700;2022-09-17T01:26:10;100808.80737304688;;;10.17;83.94
44531;BME280;30240;47.418;0.700;2022-09-17T01:26:19;100808.80737304688;;;10.17;83.94
44531;BME280;30240;47.418;0.700;2022-09-17T01:26:28;100808.80737304688;;;10.17;83.94
44531;BME280;30240;47.418;0.700;2022-09-17T01:28:18;100807.01293945312;;;10.22;83.92
44531;BME280;30240;47.418;0.700;2022-09-17T01:30:55;100814.25170898438;;;10.2;84.07
44531;BME280;30240;47.418;0.700;2022-09-17T01:33:03;100812.81127929688;;;10.15;84.02
44531;BME280;30240;47.418;0.700;2022-09-17T01:35:29;100812.81127929688;;;10.15;84.02
44531;BME280;30240;47.418;0.700;2022-09-17T01:37:53;100810.01586914062;;;10.13;84.52
44531;BME280;30240;47.418;0.700;2022-09-17T01:40:16;100811.328125;;;10.15;84.44
44531;BME280;30240;47.418;0.700;2022-09-17T01:42:49;100816.32690429688;;;10.02;84.7
44531;BME280;30240;47.418;0.700;2022-09-17T01:45:08;100819.25659179688;;;9.99;84.87
44531;BME280;30240;47.418;0.700;2022-09-17T01:47:32;100819.25659179688;;;9.99;84.87
44531;BME280;30240;47.418;0.700;2022-09-17T01:49:58;100824.40795898438;;;9.92;85.13
44531;BME280;30240;47.418;0.700;2022-09-17T01:52:19;100824.560546875;;;9.92;85.17
44531;BME280;30240;47.418;0.700;2022-09-17T01:54:45;100828.30200195312;;;9.94;85.05
44531;BME280;30240;47.418;0.700;2022-09-17T01:57:11;100828.96728515625;;;9.91;85.53
44531;BME280;30240;47.418;0.700;2022-09-17T01:59:37;100828.96728515625;;;9.91;85.53
44531;BME280;30240;47.418;0.700;2022-09-17T02:02:02;100839.26391601562;;;9.92;85.11
44531;BME280;30240;47.418;0.700;2022-09-17T02:04:27;100843.06030273438;;;9.95;85.3
44531;BME280;30240;47.418;0.700;2022-09-17T02:06:52;100842.1142578125;;;9.87;85.26
44531;BME280;30240;47.418;0.700;2022-09-17T02:09:15;100845.703125;;;9.77;86.2
44531;BME280;30240;47.418;0.700;2022-09-17T02:11:41;100845.703125;;;9.77;86.2
44531;BME280;30240;47.418;0.700;2022-09-17T02:14:07;100840.20385742188;;;9.81;85.85
44531;BME280;30240;47.418;0.700;2022-09-17T02:16:30;100841.9189453125;;;9.7;85.94
44531;BME280;30240;47.418;0.700;2022-09-17T02:18:55;100846.39892578125;;;9.73;86.12
44531;BME280;30240;47.418;0.700;2022-09-17T02:21:25;100843.64013671875;;;9.6;86.41
44531;BME280;30240;47.418;0.700;2022-09-17T02:21:28;100843.64013671875;;;9.6;86.41
44531;BME280;30240;47.418;0.700;2022-09-17T02:23:49;100843.64013671875;;;9.6;86.41
44531;BME280;30240;47.418;0.700;2022-09-17T02:26:11;100845.61767578125;;;9.58;86.49
44531;BME280;30240;47.418;0.700;2022-09-17T02:28:38;100846.09375;;;9.66;86.54
44531;BME280;30240;47.418;0.700;2022-09-17T02:30:58;100845.40405273438;;;9.57;86.61
44531;BME280;30240;47.418;0.700;2022-09-17T02:33:25;100852.98461914062;;;9.53;86.81
44531;BME280;30240;47.418;0.700;2022-09-17T02:35:49;100852.98461914062;;;9.53;86.81
44531;BME280;30240;47.418;0.700;2022-09-17T02:38:20;100851.48315429688;;;9.4;87.44
44531;BME280;30240;47.418;0.700;2022-09-17T02:40:46;100850.18920898438;;;9.43;87.36
44531;BME280;30240;47.418;0.700;2022-09-17T02:43:09;100849.20043945312;;;9.5;87.08
44531;BME280;30240;47.418;0.700;2022-09-17T02:45:37;100850.45166015625;;;9.49;87.09
44531;BME280;30240;47.418;0.700;2022-09-17T02:48:01;100849.06005859375;;;9.49;87.17
44531;BME280;30240;47.418;0.700;2022-09-17T02:50:27;100849.06005859375;;;9.49;87.17
44531;BME280;30240;47.418;0.700;2022-09-17T02:52:51;100851.79443359375;;;9.57;86.81
44531;BME280;30240;47.418;0.700;2022-09-17T02:52:56;100851.79443359375;;;9.57;86.81
44531;BME280;30240;47.418;0.700;2022-09-17T02:55:11;100852.89306640625;;;9.64;86.88
44531;BME280;30240;47.418;0.700;2022-09-17T02:55:17;100852.89306640625;;;9.64;86.88
44531;BME280;30240;47.418;0.700;2022-09-17T02:57:37;100858.62426757812;;;9.51;86.88
44531;BME280;30240;47.418;0.700;2022-09-17T03:00:08;100862.57934570312;;;9.56;86.67
44531;BME280;30240;47.418;0.700;2022-09-17T03:02:26;100862.57934570312;;;9.56;86.67
44531;BME280;30240;47.418;0.700;2022-09-17T03:04:49;100861.376953125;;;9.57;86.69
44531;BME280;30240;47.418;0.700;2022-09-17T03:07:16;100862.09106445312;;;9.51;86.58
44531;BME280;30240;47.418;0.700;2022-09-17T03:09:39;100852.294921875;;;9.36;87.05
44531;BME280;30240;47.418;0.700;2022-09-17T03:12:04;100852.294921875;;;9.31;87.3
44531;BME280;30240;47.418;0.700;2022-09-17T03:14:29;100852.294921875;;;9.31;87.3
44531;BME280;30240;47.418;0.700;2022-09-17T03:16:53;100859.46655273438;;;9.31;87.65
44531;BME280;30240;47.418;0.700;2022-09-17T03:19:18;100856.15844726562;;;9.38;87.65
44531;BME280;30240;47.418;0.700;2022-09-17T03:21:45;100861.9873046875;;;9.33;87.59
44531;BME280;30240;47.418;0.700;2022-09-17T03:24:16;100855.13916015625;;;9.24;87.87
44531;BME280;30240;47.418;0.700;2022-09-17T03:26:34;100855.13916015625;;;9.24;87.87
44531;BME280;30240;47.418;0.700;2022-09-17T03:29:07;100852.79541015625;;;9.16;87.99
44531;BME280;30240;47.418;0.700;2022-09-17T03:31:24;100852.8076171875;;;9.19;88.03
44531;BME280;30240;47.418;0.700;2022-09-17T03:33:49;100848.62670898438;;;9.18;88.17
44531;BME280;30240;47.418;0.700;2022-09-17T03:38:40;100848.6083984375;;;9.05;88.69
44531;BME280;30240;47.418;0.700;2022-09-17T03:41:05;100852.1484375;;;9.12;88.4
44531;BME280;30240;47.418;0.700;2022-09-17T03:43:29;100854.931640625;;;9.12;88.23
44531;BME280;30240;47.418;0.700;2022-09-17T03:45:54;100851.953125;;;9.16;87.96
44531;BME280;30240;47.418;0.700;2022-09-17T03:48:19;100852.18505859375;;;9.1;88.25
44531;BME280;30240;47.418;0.700;2022-09-17T03:50:44;100852.18505859375;;;9.1;88.25
44531;BME280;30240;47.418;0.700;2022-09-17T03:53:08;100857.26318359375;;;9.1;88.31
44531;BME280;30240;47.418;0.700;2022-09-17T03:55:36;100854.88891601562;;;9.11;88.35
44531;BME280;30240;47.418;0.700;2022-09-17T03:57:58;100859.82666015625;;;9.11;88.38
44531;BME280;30240;47.418;0.700;2022-09-17T04:00:24;100867.49267578125;;;9.04;88.39
44531;BME280;30240;47.418;0.700;2022-09-17T04:02:49;100867.49267578125;;;9.04;88.39
44531;BME280;30240;47.418;0.700;2022-09-17T04:05:14;100869.37255859375;;;9.07;88.15
44531;BME280;30240;47.418;0.700;2022-09-17T04:07:39;100871.5576171875;;;8.98;88.79
44531;BME280;30240;47.418;0.700;2022-09-17T04:10:04;100876.416015625;;;8.9;88.93
44531;BME280;30240;47.418;0.700;2022-09-17T04:12:28;100880.92041015625;;;8.91;88.86
44531;BME280;30240;47.418;0.700;2022-09-17T04:14:54;100884.51538085938;;;8.92;88.57
44531;BME280;30240;47.418;0.700;2022-09-17T04:17:19;100884.51538085938;;;8.92;88.57
44531;BME280;30240;47.418;0.700;2022-09-17T04:19:44;100894.775390625;;;8.9;88.59
44531;BME280;30240;47.418;0.700;2022-09-17T04:22:09;100897.93701171875;;;8.87;88.66
44531;BME280;30240;47.418;0.700;2022-09-17T04:24:34;100901.6845703125;;;8.85;88.69
44531;BME280;30240;47.418;0.700;2022-09-17T04:26:58;100903.31420898438;;;8.88;88.44
44531;BME280;30240;47.418;0.700;2022-09-17T04:29:23;100903.31420898438;;;8.88;88.44
44531;BME280;30240;47.418;0.700;2022-09-17T04:31:49;100905.19409179688;;;8.81;88.49
44531;BME280;30240;47.418;0.700;2022-09-17T04:34:14;100898.93798828125;;;8.76;88.95
44531;BME280;30240;47.418;0.700;2022-09-17T04:36:39;100903.564453125;;;8.79;88.88
44531;BME280;30240;47.418;0.700;2022-09-17T04:39:03;100908.90502929688;;;8.67;89.09
44531;BME280;30240;47.418;0.700;2022-09-17T04:41:28;100908.90502929688;;;8.67;89.09
44531;BME280;30240;47.418;0.700;2022-09-17T04:43:54;100904.74853515625;;;8.69;88.85
44531;BME280;30240;47.418;0.700;2022-09-17T04:46:18;100897.34497070312;;;8.73;88.79
44531;BME280;30240;47.418;0.700;2022-09-17T04:48:43;100901.53198242188;;;8.67;88.66
44531;BME280;30240;47.418;0.700;2022-09-17T04:51:08;100898.74877929688;;;8.62;88.79
44531;BME280;30240;47.418;0.700;2022-09-17T04:53:34;100898.74877929688;;;8.62;88.79
44531;BME280;30240;47.418;0.700;2022-09-17T04:55:58;100903.92456054688;;;8.66;88.71
44531;BME280;30240;47.418;0.700;2022-09-17T04:58:24;100906.73217773438;;;8.62;88.49
44531;BME280;30240;47.418;0.700;2022-09-17T05:00:48;100906.09130859375;;;8.55;88.66
44531;BME280;30240;47.418;0.700;2022-09-17T05:03:13;100909.96704101562;;;8.5;88.94
44531;BME280;30240;47.418;0.700;2022-09-17T05:05:38;100909.96704101562;;;8.5;88.94
44531;BME280;30240;47.418;0.700;2022-09-17T05:08:03;100912.81127929688;;;8.6;88.84
44531;BME280;30240;47.418;0.700;2022-09-17T05:10:29;100915.5029296875;;;8.45;89.26
44531;BME280;30240;47.418;0.700;2022-09-17T05:12:55;100924.98168945312;;;8.38;89.43
44531;BME280;30240;47.418;0.700;2022-09-17T05:15:19;100922.60131835938;;;8.39;89.66
44531;BME280;30240;47.418;0.700;2022-09-17T05:17:44;100922.60131835938;;;8.39;89.66
44531;BME280;30240;47.418;0.700;2022-09-17T05:20:09;100926.45263671875;;;8.42;89.32
44531;BME280;30240;47.418;0.700;2022-09-17T05:22:33;100926.65405273438;;;8.48;89.23
44531;BME280;30240;47.418;0.700;2022-09-17T05:24:59;100930.37719726562;;;8.45;89.08
44531;BME280;30240;47.418;0.700;2022-09-17T05:27:23;100936.16943359375;;;8.38;89.08
44531;BME280;30240;47.418;0.700;2022-09-17T05:29:48;100936.16943359375;;;8.38;89.08
44531;BME280;30240;47.418;0.700;2022-09-17T05:32:14;100936.33422851562;;;8.34;89.34
44531;BME280;30240;47.418;0.700;2022-09-17T05:34:38;100936.77978515625;;;8.35;89.42
44531;BME280;30240;47.418;0.700;2022-09-17T05:37:03;100939.22119140625;;;8.31;89.43
44531;BME280;30240;47.418;0.700;2022-09-17T05:39:28;100940.20385742188;;;8.25;89.56
44531;BME280;30240;47.418;0.700;2022-09-17T05:41:54;100940.20385742188;;;8.25;89.56
44531;BME280;30240;47.418;0.700;2022-09-17T05:44:19;100942.30346679688;;;8.17;89.61
44531;BME280;30240;47.418;0.700;2022-09-17T05:46:44;100939.39208984375;;;8.17;89.71
44531;BME280;30240;47.418;0.700;2022-09-17T05:49:08;100944.39086914062;;;8.18;89.65
44531;BME280;30240;47.418;0.700;2022-09-17T05:51:34;100939.7705078125;;;8.28;89.46
44531;BME280;30240;47.418;0.700;2022-09-17T05:53:58;100944.58618164062;;;8.28;89.25
44531;BME280;30240;47.418;0.700;2022-09-17T05:56:23;100944.58618164062;;;8.28;89.25
44531;BME280;30240;47.418;0.700;2022-09-17T05:58:48;100948.08349609375;;;8.39;89.1
44531;BME280;30240;47.418;0.700;2022-09-17T06:01:14;100954.93774414062;;;8.42;88.73
44531;BME280;30240;47.418;0.700;2022-09-17T06:03:38;100955.15747070312;;;8.3;88.7
44531;BME280;30240;47.418;0.700;2022-09-17T06:06:04;100959.85717773438;;;8.34;89.13
44531;BME280;30240;47.418;0.700;2022-09-17T06:08:28;100959.85717773438;;;8.34;89.13
44531;BME280;30240;47.418;0.700;2022-09-17T06:10:54;100962.841796875;;;8.32;89.07
44531;BME280;30240;47.418;0.700;2022-09-17T06:13:19;100962.21313476562;;;8.37;88.76
44531;BME280;30240;47.418;0.700;2022-09-17T06:15:48;100947.705078125;;;8.59;88.09
44531;BME280;30240;47.418;0.700;2022-09-17T06:18:08;100946.45385742188;;;8.96;86.16
44531;BME280;30240;47.418;0.700;2022-09-17T06:20:34;100946.45385742188;;;8.96;86.16
44531;BME280;30240;47.418;0.700;2022-09-17T06:22:58;100945.66650390625;;;9.42;84.65
44531;BME280;30240;47.418;0.700;2022-09-17T06:25:24;100950.68969726562;;;9.8;83.63
44531;BME280;30240;47.418;0.700;2022-09-17T06:27:48;100949.12719726562;;;10.23;81.45
44531;BME280;30240;47.418;0.700;2022-09-17T06:30:14;100947.54638671875;;;10.57;80.34
44531;BME280;30240;47.418;0.700;2022-09-17T06:32:38;100947.54638671875;;;10.57;80.34
44531;BME280;30240;47.418;0.700;2022-09-17T06:35:04;100944.47021484375;;;10.93;77.92
44531;BME280;30240;47.418;0.700;2022-09-17T06:37:30;100946.89331054688;;;11.17;77.54
44531;BME280;30240;47.418;0.700;2022-09-17T06:39:54;100947.71728515625;;;11.55;76.88
44531;BME280;30240;47.418;0.700;2022-09-17T06:42:19;100951.50146484375;;;11.3;76.75
44531;BME280;30240;47.418;0.700;2022-09-17T06:44:43;100951.50146484375;;;11.3;76.75
44531;BME280;30240;47.418;0.700;2022-09-17T06:47:08;100953.10668945312;;;11.85;75.37
44531;BME280;30240;47.418;0.700;2022-09-17T06:49:33;100951.171875;;;12.49;73.93
44531;BME280;30240;47.418;0.700;2022-09-17T06:51:58;100960.13793945312;;;12.27;73.49
44531;BME280;30240;47.418;0.700;2022-09-17T06:54:23;100960.7177734375;;;12.2;73.44
44531;BME280;30240;47.418;0.700;2022-09-17T06:56:48;100960.7177734375;;;12.2;73.44
44531;BME280;30240;47.418;0.700;2022-09-17T06:59:14;100955.95092773438;;;11.79;74.31
44531;BME280;30240;47.418;0.700;2022-09-17T07:01:39;100950.15869140625;;;12.56;72.43
44531;BME280;30240;47.418;0.700;2022-09-17T07:04:04;100948.12622070312;;;12.46;72.1
44531;BME280;30240;47.418;0.700;2022-09-17T07:06:29;100948.095703125;;;13.14;70.79
44531;BME280;30240;47.418;0.700;2022-09-17T07:08:54;100948.095703125;;;13.14;70.79
44531;BME280;30240;47.418;0.700;2022-09-17T07:11:18;100958.06884765625;;;12.96;71.44
44531;BME280;30240;47.418;0.700;2022-09-17T07:13:44;100948.84643554688;;;12.89;69.61
44531;BME280;30240;47.418;0.700;2022-09-17T07:16:09;100947.900390625;;;13.78;68.41
44531;BME280;30240;47.418;0.700;2022-09-17T07:18:33;100951.86157226562;;;14.22;67.73
44531;BME280;30240;47.418;0.700;2022-09-17T07:21:00;100955.10864257812;;;14.74;64.86
44531;BME280;30240;47.418;0.700;2022-09-17T07:23:25;100955.10864257812;;;14.74;64.86
44531;BME280;30240;47.418;0.700;2022-09-17T07:25:50;100958.06884765625;;;15.18;63.58
44531;BME280;30240;47.418;0.700;2022-09-17T07:28:13;100956.55517578125;;;14.3;67.76
44531;BME280;30240;47.418;0.700;2022-09-17T07:30:38;100962.68920898438;;;14.12;67.42
44531;BME280;30240;47.418;0.700;2022-09-17T07:33:03;100959.62524414062;;;14.5;66.02
44531;BME280;30240;47.418;0.700;2022-09-17T07:35:28;100959.62524414062;;;14.5;66.02
44531;BME280;30240;47.418;0.700;2022-09-17T07:37:53;100957.45239257812;;;14.43;66.71
44531;BME280;30240;47.418;0.700;2022-09-17T07:40:18;100956.9091796875;;;15.72;63.92
44531;BME280;30240;47.418;0.700;2022-09-17T07:42:43;100962.49389648438;;;15.3;64.57
44531;BME280;30240;47.418;0.700;2022-09-17T07:45:09;100969.51293945312;;;13.73;68.45
44531;BME280;30240;47.418;0.700;2022-09-17T07:47:37;100969.51293945312;;;13.73;68.45
44531;BME280;30240;47.418;0.700;2022-09-17T07:49:58;100969.23217773438;;;14.42;67.33
44531;BME280;30240;47.418;0.700;2022-09-17T07:52:23;100966.85791015625;;;14.67;67.13
44531;BME280;30240;47.418;0.700;2022-09-17T07:54:48;100964.82543945312;;;15.34;64.25
44531;BME280;30240;47.418;0.700;2022-09-17T07:57:13;100961.63940429688;;;15.99;62.55
44531;BME280;30240;47.418;0.700;2022-09-17T07:59:38;100961.63940429688;;;15.99;62.55
44531;BME280;30240;47.418;0.700;2022-09-17T08:02:07;100963.51318359375;;;16.3;61.34
44531;BME280;30240;47.418;0.700;2022-09-17T08:04:28;100957.61108398438;;;16.33;60.62
44531;BME280;30240;47.418;0.700;2022-09-17T08:06:53;100962.060546875;;;16.73;61.06
44531;BME280;30240;47.418;0.700;2022-09-17T08:09:18;100963.720703125;;;15.1;64.3
44531;BME280;30240;47.418;0.700;2022-09-17T08:11:44;100963.720703125;;;15.1;64.3
44531;BME280;30240;47.418;0.700;2022-09-17T08:14:10;100966.57104492188;;;15.95;63.55
44531;BME280;30240;47.418;0.700;2022-09-17T08:16:33;100970.68481445312;;;15.81;62.51
44531;BME280;30240;47.418;0.700;2022-09-17T08:18:58;100970.20263671875;;;16.86;60.91
44531;BME280;30240;47.418;0.700;2022-09-17T08:21:23;100976.7822265625;;;17.04;60.15
44531;BME280;30240;47.418;0.700;2022-09-17T08:23:48;100976.7822265625;;;17.04;60.15
44531;BME280;30240;47.418;0.700;2022-09-17T08:26:15;100972.8759765625;;;16.03;61.65
44531;BME280;30240;47.418;0.700;2022-09-17T08:28:39;100975.47607421875;;;17.16;59.01
44531;BME280;30240;47.418;0.700;2022-09-17T08:31:05;100982.1533203125;;;17.38;58.42
44531;BME280;30240;47.418;0.700;2022-09-17T08:33:30;100979.70581054688;;;17.35;57.48
44531;BME280;30240;47.418;0.700;2022-09-17T08:35:54;100979.70581054688;;;17.35;57.48
44531;BME280;30240;47.418;0.700;2022-09-17T08:38:19;100986.9873046875;;;17.86;56.02
44531;BME280;30240;47.418;0.700;2022-09-17T08:40:55;100986.95068359375;;;17.24;56.32
44531;BME280;30240;47.418;0.700;2022-09-17T08:43:14;100983.43505859375;;;18.11;53.64
44531;BME280;30240;47.418;0.700;2022-09-17T08:45:33;100982.34252929688;;;16.52;55.41
44531;BME280;30240;47.418;0.700;2022-09-17T08:48:01;100982.34252929688;;;16.52;55.41
44531;BME280;30240;47.418;0.700;2022-09-17T08:50:28;100982.72094726562;;;17.77;54.2
44531;BME280;30240;47.418;0.700;2022-09-17T08:52:58;100986.38305664062;;;18.14;51.93
44531;BME280;30240;47.418;0.700;2022-09-17T08:53:08;100986.38305664062;;;18.14;51.93
44531;BME280;30240;47.418;0.700;2022-09-17T08:53:17;100986.38305664062;;;18.14;51.93
44531;BME280;30240;47.418;0.700;2022-09-17T08:53:25;100986.38305664062;;;18.14;51.93
44531;BME280;30240;47.418;0.700;2022-09-17T08:53:34;100986.38305664062;;;18.14;51.93
44531;BME280;30240;47.418;0.700;2022-09-17T08:55:20;100986.43798828125;;;18.08;49.83
44531;BME280;30240;47.418;0.700;2022-09-17T08:55:27;100986.43798828125;;;18.08;49.83
44531;BME280;30240;47.418;0.700;2022-09-17T08:57:44;100984.48486328125;;;18.48;48.54
44531;BME280;30240;47.418;0.700;2022-09-17T09:00:08;100990.673828125;;;18.48;46.99
44531;BME280;30240;47.418;0.700;2022-09-17T09:02:44;100990.673828125;;;18.48;46.99
44531;BME280;30240;47.418;0.700;2022-09-17T09:02:52;100990.673828125;;;18.48;46.99
44531;BME280;30240;47.418;0.700;2022-09-17T09:02:59;100990.673828125;;;18.48;46.99
44531;BME280;30240;47.418;0.700;2022-09-17T09:05:00;100989.83764648438;;;18.41;48.09
44531;BME280;30240;47.418;0.700;2022-09-17T09:07:22;100991.845703125;;;19.18;46.04
44531;BME280;30240;47.418;0.700;2022-09-17T09:09:46;100996.42333984375;;;19.14;44.89
44531;BME280;30240;47.418;0.700;2022-09-17T09:12:14;100994.921875;;;18.88;45.42
44531;BME280;30240;47.418;0.700;2022-09-17T09:12:17;100994.921875;;;18.88;45.42
44531;BME280;30240;47.418;0.700;2022-09-17T09:14:36;100994.921875;;;18.88;45.42
44531;BME280;30240;47.418;0.700;2022-09-17T09:17:02;100994.72045898438;;;17.58;48.15
44531;BME280;30240;47.418;0.700;2022-09-17T09:19:25;100991.5771484375;;;19.11;44.95
44531;BME280;30240;47.418;0.700;2022-09-17T09:22:01;100997.42431640625;;;18.64;45.76
44531;BME280;30240;47.418;0.700;2022-09-17T09:24:21;100997.82104492188;;;19.57;43.16
44531;BME280;30240;47.418;0.700;2022-09-17T09:26:43;100997.82104492188;;;19.57;43.16
44531;BME280;30240;47.418;0.700;2022-09-17T09:29:08;100997.05200195312;;;19.73;43.35
44531;BME280;30240;47.418;0.700;2022-09-17T09:31:36;100998.68774414062;;;19.54;44.04
44531;BME280;30240;47.418;0.700;2022-09-17T09:33:54;100995.1416015625;;;19.4;44.18
44531;BME280;30240;47.418;0.700;2022-09-17T09:36:19;100997.8759765625;;;19.57;43.47
44531;BME280;30240;47.418;0.700;2022-09-17T09:38:49;100997.8759765625;;;19.57;43.47
44531;BME280;30240;47.418;0.700;2022-09-17T09:41:10;101010.85815429688;;;17.58;47.1
44531;BME280;30240;47.418;0.700;2022-09-17T09:43:38;101018.08471679688;;;17.82;46.71
44531;BME280;30240;47.418;0.700;2022-09-17T09:46:13;101023.85864257812;;;17.61;47.77
44531;BME280;30240;47.418;0.700;2022-09-17T09:48:35;101012.92114257812;;;19.82;44.33
44531;BME280;30240;47.418;0.700;2022-09-17T09:51:08;101012.92114257812;;;19.82;44.33
44531;BME280;30240;47.418;0.700;2022-09-17T09:51:16;101012.92114257812;;;19.82;44.33
44531;BME280;30240;47.418;0.700;2022-09-17T09:51:24;101012.92114257812;;;19.82;44.33
44531;BME280;30240;47.418;0.700;2022-09-17T09:53:21;101003.49731445312;;;19.69;43.32
44531;BME280;30240;47.418;0.700;2022-09-17T09:53:25;101003.49731445312;;;19.69;43.32
44531;BME280;30240;47.418;0.700;2022-09-17T09:53:31;101003.49731445312;;;19.69;43.32
44531;BME280;30240;47.418;0.700;2022-09-17T09:55:47;101013.69018554688;;;19.26;43.71
44531;BME280;30240;47.418;0.700;2022-09-17T09:58:21;101007.06176757812;;;20.23;42.19
44531;BME280;30240;47.418;0.700;2022-09-17T10:00:36;100994.21997070312;;;19.92;42.73
44531;BME280;30240;47.418;0.700;2022-09-17T10:02:56;100994.21997070312;;;19.92;42.73
44531;BME280;30240;47.418;0.700;2022-09-17T10:05:18;100990.85083007812;;;21.02;40.18
44531;BME280;30240;47.418;0.700;2022-09-17T10:07:44;100985.46752929688;;;20.67;41.03
44531;BME280;30240;47.418;0.700;2022-09-17T10:10:09;100984.82055664062;;;18.08;43.65
44531;BME280;30240;47.418;0.700;2022-09-17T10:12:33;101006.50024414062;;;15.95;49.59
44531;BME280;30240;47.418;0.700;2022-09-17T10:15:24;101006.50024414062;;;15.95;49.59
44531;BME280;30240;47.418;0.700;2022-09-17T10:17:24;100992.3583984375;;;17.86;44.88
44531;BME280;30240;47.418;0.700;2022-09-17T10:20:14;100999.37744140625;;;18.69;44.51
44531;BME280;30240;47.418;0.700;2022-09-17T10:22:19;101000.390625;;;20.04;42.25
44531;BME280;30240;47.418;0.700;2022-09-17T10:24:38;100999.27978515625;;;20.13;40.52
44531;BME280;30240;47.418;0.700;2022-09-17T10:27:05;100989.36767578125;;;18.91;42.94
44531;BME280;30240;47.418;0.700;2022-09-17T10:29:29;100989.36767578125;;;18.91;42.94